Time;durP1;ratioP1;P1;durP2;ratioP2;P2;SDS_P1;SDS_P2;PMS_P1;PMS_P2;Temp;Humidity;BMP_temperature;BMP_pressure;BME280_temperature;BME280_humidity;BME280_pressure;Samples;Min_cycle;Max_cycle;Signal;HPM_P1;HPM_P2
2022/03/26 00:02:28;;;;;;;36.57;19.53;;;;;;;;;;5034533;28;20180;-85
2022/03/26 00:05:33;;;;;;;30.50;18.87;;;;;;;;;;5046233;28;20528;-85
2022/03/26 00:08:37;;;;;;;31.27;19.13;;;;;;;;;;5034233;28;20567;-85
2022/03/26 00:11:41;;;;;;;33.37;19.13;;;;;;;;;;5034041;28;20184;-85
2022/03/26 00:14:46;;;;;;;32.03;19.03;;;;;;;;;;5045967;28;20520;-84
2022/03/26 00:17:50;;;;;;;35.70;19.27;;;;;;;;;;5034266;28;20654;-85
2022/03/26 00:20:54;;;;;;;32.20;19.30;;;;;;;;;;5034048;28;20177;-85
2022/03/26 00:23:58;;;;;;;31.27;18.23;;;;;;;;;;5034109;28;20540;-85
2022/03/26 00:27:02;;;;;;;31.13;18.07;;;;;;;;;;5011190;28;20220;-85
2022/03/26 00:30:08;;;;;;;32.13;17.77;;;;;;;;;;5034128;28;20544;-85
2022/03/26 00:33:11;;;;;;;32.10;18.33;;;;;;;;;;5011536;28;20540;-85
2022/03/26 00:36:15;;;;;;;34.90;18.53;;;;;;;;;;5022629;28;20544;-85
2022/03/26 00:39:19;;;;;;;33.97;18.73;;;;;;;;;;5034501;28;20532;-85
2022/03/26 00:42:24;;;;;;;35.27;17.70;;;;;;;;;;5033725;28;20544;-85
2022/03/26 00:45:29;;;;;;;39.33;19.20;;;;;;;;;;5034089;28;20540;-85
2022/03/26 00:48:33;;;;;;;32.20;18.57;;;;;;;;;;5044825;28;20615;-85
2022/03/26 00:51:37;;;;;;;34.60;19.77;;;;;;;;;;5033966;28;20599;-85
2022/03/26 00:54:41;;;;;;;36.77;17.97;;;;;;;;;;5045059;28;20947;-85
2022/03/26 00:57:45;;;;;;;33.77;17.77;;;;;;;;;;5033586;28;20654;-85
2022/03/26 01:00:50;;;;;;;36.07;19.10;;;;;;;;;;5033644;28;20540;-85
2022/03/26 01:03:54;;;;;;;32.70;18.27;;;;;;;;;;5033526;28;20548;-85
2022/03/26 01:06:58;;;;;;;33.93;18.93;;;;;;;;;;5022713;28;20618;-85
2022/03/26 01:10:04;;;;;;;30.87;18.07;;;;;;;;;;5045254;28;20548;-85
2022/03/26 01:13:08;;;;;;;32.13;18.33;;;;;;;;;;5033159;28;20552;-85
2022/03/26 01:16:12;;;;;;;33.37;18.20;;;;;;;;;;5010981;28;20544;-85
2022/03/26 01:19:16;;;;;;;30.07;18.07;;;;;;;;;;5044875;28;20591;-85
2022/03/26 01:22:21;;;;;;;32.83;18.00;;;;;;;;;;5045118;28;20535;-85
2022/03/26 01:25:25;;;;;;;33.47;18.27;;;;;;;;;;5022443;28;20721;-85
2022/03/26 01:28:30;;;;;;;34.57;18.20;;;;;;;;;;5045124;28;20619;-85
2022/03/26 01:31:34;;;;;;;32.73;18.67;;;;;;;;;;5034175;28;20603;-85
2022/03/26 01:34:38;;;;;;;28.60;16.87;;;;;;;;;;5037172;28;20876;-85
2022/03/26 01:37:42;;;;;;;31.77;17.03;;;;;;;;;;5025055;28;20663;-85
2022/03/26 01:40:46;;;;;;;30.23;16.63;;;;;;;;;;5013987;28;20946;-85
2022/03/26 01:43:50;;;;;;;35.13;16.90;;;;;;;;;;5036509;28;20590;-84
2022/03/26 01:46:55;;;;;;;31.57;17.67;;;;;;;;;;5036592;28;20627;-85
2022/03/26 01:49:59;;;;;;;31.43;17.43;;;;;;;;;;5036835;28;20540;-85
2022/03/26 01:53:03;;;;;;;28.40;15.20;;;;;;;;;;5025099;28;20603;-85
2022/03/26 01:56:08;;;;;;;35.27;17.60;;;;;;;;;;5024204;28;20599;-86
2022/03/26 01:59:12;;;;;;;27.47;16.47;;;;;;;;;;5047027;28;20928;-86
2022/03/26 02:02:17;;;;;;;37.93;18.10;;;;;;;;;;5024269;28;20919;-86
2022/03/26 02:05:21;;;;;;;30.30;15.97;;;;;;;;;;5035431;28;20602;-86
2022/03/26 02:08:25;;;;;;;33.30;17.70;;;;;;;;;;5035239;28;20622;-86
2022/03/26 02:11:34;;;;;;;31.50;17.57;;;;;;;;;;5035247;28;21098;-86
2022/03/26 02:14:38;;;;;;;36.40;18.17;;;;;;;;;;5046715;28;20544;-86
2022/03/26 02:17:43;;;;;;;37.57;17.27;;;;;;;;;;5023576;28;20658;-86
2022/03/26 02:20:47;;;;;;;33.80;18.23;;;;;;;;;;5035469;28;20544;-86
2022/03/26 02:23:52;;;;;;;31.07;17.43;;;;;;;;;;5023866;28;20536;-86
2022/03/26 02:26:56;;;;;;;32.70;16.63;;;;;;;;;;5034852;28;20623;-85
2022/03/26 02:30:01;;;;;;;31.93;18.47;;;;;;;;;;5035065;28;20591;-86
2022/03/26 02:33:05;;;;;;;32.77;18.20;;;;;;;;;;5023504;28;20552;-85
2022/03/26 02:36:10;;;;;;;34.93;17.30;;;;;;;;;;5023802;28;21094;-85
2022/03/26 02:39:14;;;;;;;34.20;18.10;;;;;;;;;;5023524;28;21138;-86
2022/03/26 02:42:18;;;;;;;30.63;17.77;;;;;;;;;;5034630;28;20560;-86
2022/03/26 02:45:22;;;;;;;31.30;17.00;;;;;;;;;;5012454;28;20540;-86
2022/03/26 02:48:26;;;;;;;32.97;17.70;;;;;;;;;;5022960;28;20615;-86
2022/03/26 02:51:31;;;;;;;34.03;18.83;;;;;;;;;;5023281;28;20540;-86
2022/03/26 02:54:35;;;;;;;32.23;17.53;;;;;;;;;;5012109;28;20880;-86
2022/03/26 02:57:39;;;;;;;31.50;17.63;;;;;;;;;;5034113;28;20627;-86
2022/03/26 03:00:43;;;;;;;33.23;18.00;;;;;;;;;;5023147;28;20536;-86
2022/03/26 03:03:47;;;;;;;33.43;17.93;;;;;;;;;;5034216;28;20552;-86
2022/03/26 03:06:52;;;;;;;31.77;18.53;;;;;;;;;;5023023;28;20614;-85
2022/03/26 03:09:56;;;;;;;33.73;17.77;;;;;;;;;;5045762;28;20532;-86
2022/03/26 03:13:00;;;;;;;35.30;18.10;;;;;;;;;;5023117;28;20540;-86
2022/03/26 03:16:05;;;;;;;31.30;15.83;;;;;;;;;;5011633;28;20540;-86
2022/03/26 03:19:09;;;;;;;31.67;17.90;;;;;;;;;;5026540;28;20927;-86
2022/03/26 03:22:13;;;;;;;31.00;17.57;;;;;;;;;;5022706;28;20543;-86
2022/03/26 03:25:18;;;;;;;29.77;17.53;;;;;;;;;;5033859;28;20591;-86
2022/03/26 03:28:22;;;;;;;36.93;18.07;;;;;;;;;;5033629;28;21173;-86
2022/03/26 03:31:28;;;;;;;31.77;18.33;;;;;;;;;;5033562;28;20544;-86
2022/03/26 03:34:32;;;;;;;34.50;18.03;;;;;;;;;;5033838;28;20540;-86
2022/03/26 03:37:37;;;;;;;35.03;18.17;;;;;;;;;;5010694;28;20651;-86
2022/03/26 03:40:41;;;;;;;37.17;18.53;;;;;;;;;;5011127;28;20588;-86
2022/03/26 03:43:45;;;;;;;32.97;17.40;;;;;;;;;;5033810;28;20548;-86
2022/03/26 03:46:49;;;;;;;33.63;17.90;;;;;;;;;;5033308;28;20544;-86
2022/03/26 03:49:54;;;;;;;34.17;18.03;;;;;;;;;;5022360;28;20540;-86
2022/03/26 03:52:58;;;;;;;32.97;18.10;;;;;;;;;;5045236;28;21086;-86
2022/03/26 03:56:02;;;;;;;33.87;18.40;;;;;;;;;;5010488;28;20876;-86
2022/03/26 03:59:06;;;;;;;34.17;17.77;;;;;;;;;;5033755;28;20595;-86
2022/03/26 04:02:10;;;;;;;36.17;18.13;;;;;;;;;;5022302;28;20903;-84
2022/03/26 04:05:14;;;;;;;30.77;17.50;;;;;;;;;;5021488;28;21164;-84
2022/03/26 04:08:18;;;;;;;31.63;16.93;;;;;;;;;;5032768;28;20623;-84
2022/03/26 04:11:22;;;;;;;31.03;17.83;;;;;;;;;;5010732;28;20603;-85
2022/03/26 04:14:27;;;;;;;31.53;17.70;;;;;;;;;;5034113;28;20899;-84
2022/03/26 04:17:32;;;;;;;34.17;18.77;;;;;;;;;;5021551;28;20619;-84
2022/03/26 04:20:37;;;;;;;35.70;17.87;;;;;;;;;;5021435;28;20588;-84
2022/03/26 04:23:41;;;;;;;32.70;18.27;;;;;;;;;;5021597;28;20540;-84
2022/03/26 04:26:45;;;;;;;31.97;16.83;;;;;;;;;;5021808;28;20543;-84
2022/03/26 04:29:49;;;;;;;29.30;16.17;;;;;;;;;;5021466;28;20540;-84
2022/03/26 04:32:53;;;;;;;32.60;18.07;;;;;;;;;;5032649;28;20611;-84
2022/03/26 04:35:57;;;;;;;32.47;16.87;;;;;;;;;;5021063;28;20943;-84
2022/03/26 04:39:02;;;;;;;34.03;18.27;;;;;;;;;;5010296;28;20591;-84
2022/03/26 04:42:06;;;;;;;34.03;17.90;;;;;;;;;;5032347;28;20559;-84
2022/03/26 04:45:11;;;;;;;40.93;17.90;;;;;;;;;;5032785;28;20607;-84
2022/03/26 04:48:14;;;;;;;34.30;17.53;;;;;;;;;;5032438;28;21193;-84
2022/03/26 04:51:18;;;;;;;31.87;17.70;;;;;;;;;;5032810;28;20540;-84
2022/03/26 04:54:23;;;;;;;33.37;17.40;;;;;;;;;;5032736;28;20543;-84
2022/03/26 04:57:27;;;;;;;31.67;18.17;;;;;;;;;;5032506;28;20635;-84
2022/03/26 05:00:31;;;;;;;33.47;16.37;;;;;;;;;;5010227;28;20919;-84
2022/03/26 05:03:35;;;;;;;34.50;17.10;;;;;;;;;;5032365;28;20544;-84
2022/03/26 05:06:40;;;;;;;31.10;17.47;;;;;;;;;;5022136;28;20535;-84
2022/03/26 05:09:44;;;;;;;30.10;17.33;;;;;;;;;;5025061;28;20590;-84
2022/03/26 05:12:49;;;;;;;34.10;17.63;;;;;;;;;;5047481;28;20587;-84
2022/03/26 05:15:53;;;;;;;34.20;17.27;;;;;;;;;;5024851;28;20536;-84
2022/03/26 05:18:58;;;;;;;34.30;17.90;;;;;;;;;;5035735;28;20979;-84
2022/03/26 05:22:03;;;;;;;33.27;17.50;;;;;;;;;;5035808;28;21153;-84
2022/03/26 05:25:09;;;;;;;32.60;17.53;;;;;;;;;;5036064;28;20896;-84
2022/03/26 05:28:13;;;;;;;30.30;16.93;;;;;;;;;;5035602;28;20618;-84
2022/03/26 05:31:18;;;;;;;33.90;17.57;;;;;;;;;;5035630;28;20604;-84
2022/03/26 05:34:21;;;;;;;32.63;17.90;;;;;;;;;;5036105;28;20536;-84
2022/03/26 05:37:26;;;;;;;33.53;16.63;;;;;;;;;;5027095;28;20643;-85
2022/03/26 05:40:30;;;;;;;32.37;17.43;;;;;;;;;;5038987;28;20607;-85
2022/03/26 05:43:34;;;;;;;29.33;17.27;;;;;;;;;;5016303;28;20531;-85
2022/03/26 05:46:38;;;;;;;32.70;16.40;;;;;;;;;;5024963;28;20536;-86
2022/03/26 05:49:42;;;;;;;40.63;18.70;;;;;;;;;;5047526;28;20536;-86
2022/03/26 05:52:47;;;;;;;32.53;18.00;;;;;;;;;;5036917;28;20544;-86
2022/03/26 05:55:52;;;;;;;31.13;17.43;;;;;;;;;;5014376;28;20535;-85
2022/03/26 05:58:56;;;;;;;35.07;17.33;;;;;;;;;;5038241;28;20596;-84
2022/03/26 06:02:00;;;;;;;36.17;19.37;;;;;;;;;;5026587;28;21070;-84
2022/03/26 06:05:05;;;;;;;34.20;19.70;;;;;;;;;;5038055;28;20540;-85
2022/03/26 06:08:09;;;;;;;50.60;21.00;;;;;;;;;;5047866;28;21184;-84
2022/03/26 06:11:13;;;;;;;46.70;22.57;;;;;;;;;;5035847;28;20536;-84
2022/03/26 06:14:18;;;;;;;39.73;20.03;;;;;;;;;;5012696;28;20540;-85
2022/03/26 06:17:22;;;;;;;32.00;17.97;;;;;;;;;;5036417;28;20619;-85
2022/03/26 06:20:26;;;;;;;35.47;19.30;;;;;;;;;;5012175;28;20646;-85
2022/03/26 06:23:33;;;;;;;40.90;23.20;;;;;;;;;;5036723;28;20611;-85
2022/03/26 06:26:39;;;;;;;51.03;28.90;;;;;;;;;;5012435;28;20600;-85
2022/03/26 06:29:43;;;;;;;38.73;22.60;;;;;;;;;;5034876;28;20532;-84
2022/03/26 06:32:47;;;;;;;46.47;27.53;;;;;;;;;;5023610;28;20548;-85
2022/03/26 06:35:51;;;;;;;43.87;24.57;;;;;;;;;;5035151;28;20540;-85
2022/03/26 06:38:55;;;;;;;45.37;24.83;;;;;;;;;;5034904;28;21204;-85
2022/03/26 06:41:59;;;;;;;37.43;20.57;;;;;;;;;;5034428;28;20548;-85
2022/03/26 06:45:03;;;;;;;41.67;21.70;;;;;;;;;;5011949;28;20544;-85
2022/03/26 06:48:08;;;;;;;31.67;19.27;;;;;;;;;;5034386;28;20619;-85
2022/03/26 06:51:13;;;;;;;32.60;20.07;;;;;;;;;;5034750;28;20536;-85
2022/03/26 06:54:18;;;;;;;38.40;22.03;;;;;;;;;;5034581;28;20197;-85
2022/03/26 06:57:22;;;;;;;36.33;21.73;;;;;;;;;;5034911;28;20221;-85
2022/03/26 07:00:26;;;;;;;37.70;20.50;;;;;;;;;;5045932;28;20224;-85
2022/03/26 07:03:31;;;;;;;36.67;21.43;;;;;;;;;;5023650;28;20185;-85
2022/03/26 07:06:35;;;;;;;37.87;19.70;;;;;;;;;;5011904;28;20177;-85
2022/03/26 07:09:38;;;;;;;34.20;18.80;;;;;;;;;;5034183;28;20628;-85
2022/03/26 07:12:43;;;;;;;35.40;19.90;;;;;;;;;;5034056;28;20177;-85
2022/03/26 07:15:47;;;;;;;34.70;20.10;;;;;;;;;;5034230;28;20526;-85
2022/03/26 07:18:51;;;;;;;37.33;18.70;;;;;;;;;;5034373;28;20224;-85
2022/03/26 07:21:55;;;;;;;36.23;20.70;;;;;;;;;;5033788;28;20516;-85
2022/03/26 07:24:59;;;;;;;36.37;20.37;;;;;;;;;;5022545;28;20176;-85
2022/03/26 07:28:04;;;;;;;35.63;21.50;;;;;;;;;;5033577;28;20216;-84
2022/03/26 07:31:08;;;;;;;36.77;19.47;;;;;;;;;;5033297;28;20192;-84
2022/03/26 07:34:15;;;;;;;33.90;19.23;;;;;;;;;;5011117;28;20180;-85
2022/03/26 07:37:20;;;;;;;29.67;18.87;;;;;;;;;;5033456;28;20231;-85
2022/03/26 07:40:24;;;;;;;32.10;19.20;;;;;;;;;;5034002;28;20686;-85
2022/03/26 07:43:28;;;;;;;32.10;18.83;;;;;;;;;;5022546;28;20190;-85
2022/03/26 07:46:33;;;;;;;39.43;18.40;;;;;;;;;;5033884;28;20187;-85
2022/03/26 07:49:37;;;;;;;29.20;18.07;;;;;;;;;;5021791;28;20196;-85
2022/03/26 07:52:42;;;;;;;29.70;18.73;;;;;;;;;;5010802;28;20183;-85
2022/03/26 07:55:46;;;;;;;30.40;18.07;;;;;;;;;;5033301;28;20661;-85
2022/03/26 07:58:50;;;;;;;32.93;18.63;;;;;;;;;;5033448;28;20331;-85
2022/03/26 08:01:54;;;;;;;36.13;18.80;;;;;;;;;;5032831;28;20192;-85
2022/03/26 08:04:59;;;;;;;29.47;17.77;;;;;;;;;;5044586;28;20509;-85
2022/03/26 08:08:03;;;;;;;30.77;18.80;;;;;;;;;;5033067;28;20215;-85
2022/03/26 08:11:07;;;;;;;33.10;17.93;;;;;;;;;;5033141;28;20183;-85
2022/03/26 08:14:12;;;;;;;36.43;18.27;;;;;;;;;;5032984;28;20192;-85
2022/03/26 08:17:16;;;;;;;32.70;18.03;;;;;;;;;;5032966;28;20219;-85
2022/03/26 08:20:20;;;;;;;36.40;18.67;;;;;;;;;;5021637;28;20590;-85
2022/03/26 08:23:25;;;;;;;29.63;18.43;;;;;;;;;;5032903;28;20203;-85
2022/03/26 08:26:29;;;;;;;34.03;18.73;;;;;;;;;;5032877;28;20539;-84
2022/03/26 08:29:33;;;;;;;34.73;19.50;;;;;;;;;;5033238;28;20564;-85
2022/03/26 08:32:38;;;;;;;33.63;19.30;;;;;;;;;;5033064;28;20196;-85
2022/03/26 08:35:42;;;;;;;31.73;18.50;;;;;;;;;;5021393;28;20188;-85
2022/03/26 08:38:47;;;;;;;36.73;18.60;;;;;;;;;;5032193;28;20227;-85
2022/03/26 08:41:51;;;;;;;34.67;19.23;;;;;;;;;;5035872;28;20190;-85
2022/03/26 08:44:57;;;;;;;34.37;18.73;;;;;;;;;;5014200;28;20548;-85
2022/03/26 08:48:03;;;;;;;34.73;19.50;;;;;;;;;;5025174;28;20221;-85
2022/03/26 08:51:06;;;;;;;35.37;19.50;;;;;;;;;;5036722;28;20181;-84
2022/03/26 08:54:11;;;;;;;36.20;19.87;;;;;;;;;;5036788;28;20215;-85
2022/03/26 08:57:15;;;;;;;39.87;20.57;;;;;;;;;;5024958;28;20583;-85
2022/03/26 09:00:20;;;;;;;38.03;18.77;;;;;;;;;;5036472;28;20237;-85
2022/03/26 09:03:24;;;;;;;36.27;21.30;;;;;;;;;;5047849;28;20181;-85
2022/03/26 09:06:29;;;;;;;36.23;20.33;;;;;;;;;;5036359;28;20173;-85
2022/03/26 09:09:33;;;;;;;35.17;20.07;;;;;;;;;;5024865;28;20203;-84
2022/03/26 09:12:37;;;;;;;38.40;20.27;;;;;;;;;;5036727;28;20679;-85
2022/03/26 09:15:41;;;;;;;35.50;20.43;;;;;;;;;;5036440;28;20195;-85
2022/03/26 09:18:46;;;;;;;30.70;19.90;;;;;;;;;;5036065;28;20243;-85
2022/03/26 09:21:50;;;;;;;35.67;20.40;;;;;;;;;;5036058;28;20687;-85
2022/03/26 09:24:54;;;;;;;42.17;20.33;;;;;;;;;;5036142;28;20203;-85
2022/03/26 09:27:58;;;;;;;34.87;18.93;;;;;;;;;;5047095;28;20223;-85
2022/03/26 09:31:02;;;;;;;36.50;20.93;;;;;;;;;;5035938;28;20184;-84
2022/03/26 09:34:06;;;;;;;33.67;20.63;;;;;;;;;;5035636;28;20184;-85
2022/03/26 09:37:12;;;;;;;35.80;20.53;;;;;;;;;;5035566;28;20595;-85
2022/03/26 09:40:19;;;;;;;32.00;20.17;;;;;;;;;;5024356;28;20213;-85
2022/03/26 09:43:24;;;;;;;33.87;20.43;;;;;;;;;;5035600;28;20184;-83
2022/03/26 09:46:28;;;;;;;30.73;19.30;;;;;;;;;;5035929;28;20535;-85
2022/03/26 09:49:33;;;;;;;34.53;20.40;;;;;;;;;;5024301;28;20211;-83
2022/03/26 09:52:37;;;;;;;30.93;19.13;;;;;;;;;;5046068;28;20199;-83
2022/03/26 09:55:43;;;;;;;34.60;19.83;;;;;;;;;;5035293;28;20185;-83
2022/03/26 09:58:50;;;;;;;33.70;20.23;;;;;;;;;;5035077;28;20223;-84
2022/03/26 10:01:55;;;;;;;32.30;21.00;;;;;;;;;;5035214;28;20205;-83
2022/03/26 10:04:59;;;;;;;42.00;20.70;;;;;;;;;;5035244;28;20203;-84
2022/03/26 10:08:19;;;;;;;35.83;20.30;;;;;;;;;;5035015;28;20229;-85
2022/03/26 10:11:23;;;;;;;33.53;20.60;;;;;;;;;;5023555;28;20182;-83
2022/03/26 10:14:38;;;;;;;34.63;21.07;;;;;;;;;;5034869;28;20184;-84
2022/03/26 10:17:42;;;;;;;32.40;20.87;;;;;;;;;;5023507;28;20223;-83
2022/03/26 10:20:57;;;;;;;32.53;20.97;;;;;;;;;;5023362;28;20223;-83
2022/03/26 10:24:05;;;;;;;32.67;21.67;;;;;;;;;;5034702;28;20702;-83
2022/03/26 10:27:12;;;;;;;33.97;21.50;;;;;;;;;;5034565;28;20587;-84
2022/03/26 10:32:39;;;;;;;40.33;22.53;;;;;;;;;;5035032;28;20184;-84
2022/03/26 10:33:47;;;;;;;40.03;21.47;;;;;;;;;;5034327;28;20591;-84
2022/03/26 10:36:57;;;;;;;45.30;22.67;;;;;;;;;;5034408;28;20220;-85
2022/03/26 10:40:20;;;;;;;37.33;21.97;;;;;;;;;;5023236;28;20192;-85
2022/03/26 10:43:25;;;;;;;34.57;22.53;;;;;;;;;;5045672;28;20188;-85
2022/03/26 10:46:29;;;;;;;34.47;21.70;;;;;;;;;;5034844;28;20192;-85
2022/03/26 10:49:36;;;;;;;33.37;22.13;;;;;;;;;;5034476;28;20655;-84
2022/03/26 10:52:41;;;;;;;33.63;22.27;;;;;;;;;;5023938;28;20196;-85
2022/03/26 10:55:48;;;;;;;38.63;23.33;;;;;;;;;;5045670;28;20199;-84
2022/03/26 10:58:52;;;;;;;33.47;21.83;;;;;;;;;;5034177;28;20223;-84
2022/03/26 11:01:57;;;;;;;35.47;22.30;;;;;;;;;;5022974;28;20230;-85
2022/03/26 11:05:01;;;;;;;35.27;21.30;;;;;;;;;;5044723;28;20200;-85
2022/03/26 11:08:09;;;;;;;38.60;22.63;;;;;;;;;;5022993;28;20567;-84
2022/03/26 11:11:14;;;;;;;34.37;21.47;;;;;;;;;;5022331;28;20176;-84
2022/03/26 11:14:26;;;;;;;30.87;19.87;;;;;;;;;;5022863;28;20204;-85
2022/03/26 11:18:04;;;;;;;33.00;21.50;;;;;;;;;;5022379;28;20593;-85
2022/03/26 11:21:33;;;;;;;31.97;20.83;;;;;;;;;;5033797;28;20212;-85
2022/03/26 11:24:49;;;;;;;30.43;20.80;;;;;;;;;;5034152;28;20183;-85
2022/03/26 11:28:08;;;;;;;33.17;20.50;;;;;;;;;;5022185;28;20217;-85
2022/03/26 11:31:21;;;;;;;34.80;22.30;;;;;;;;;;5033613;28;20180;-85
2022/03/26 11:34:28;;;;;;;38.97;22.87;;;;;;;;;;5033609;28;20177;-85
2022/03/26 11:37:32;;;;;;;37.07;21.40;;;;;;;;;;5033358;28;20243;-84
2022/03/26 11:40:40;;;;;;;32.73;20.90;;;;;;;;;;5033347;28;20219;-84
2022/03/26 11:43:44;;;;;;;33.23;22.07;;;;;;;;;;5022174;28;20173;-84
2022/03/26 11:53:44;;;;;;;36.97;23.20;;;;;;;;;;5033381;28;20181;-84
2022/03/26 11:57:12;;;;;;;33.70;21.63;;;;;;;;;;5021574;28;20576;-85
2022/03/26 12:00:20;;;;;;;33.70;19.63;;;;;;;;;;5021736;28;20657;-85
2022/03/26 12:03:25;;;;;;;31.17;20.90;;;;;;;;;;5032923;28;20194;-84
2022/03/26 12:06:40;;;;;;;44.03;22.43;;;;;;;;;;5021777;28;20204;-84
2022/03/26 12:09:45;;;;;;;33.23;21.10;;;;;;;;;;5033055;28;20184;-84
2022/03/26 12:13:00;;;;;;;31.83;21.17;;;;;;;;;;5033030;28;20184;-85
2022/03/26 12:16:06;;;;;;;30.67;20.70;;;;;;;;;;5032997;28;20653;-84
2022/03/26 12:19:10;;;;;;;36.67;21.40;;;;;;;;;;5032585;28;20185;-85
2022/03/26 12:22:26;;;;;;;34.27;21.97;;;;;;;;;;5021526;28;20212;-84
2022/03/26 12:25:46;;;;;;;32.23;20.90;;;;;;;;;;5033166;28;20190;-83
2022/03/26 12:28:51;;;;;;;35.23;20.90;;;;;;;;;;5021534;28;20331;-84
2022/03/26 12:31:59;;;;;;;31.73;20.30;;;;;;;;;;5021322;28;20176;-85
2022/03/26 12:35:06;;;;;;;29.60;20.13;;;;;;;;;;5032776;28;20184;-85
2022/03/26 12:38:11;;;;;;;31.33;19.17;;;;;;;;;;5032857;28;20224;-85
2022/03/26 12:41:15;;;;;;;30.53;19.53;;;;;;;;;;5032725;28;20575;-85
2022/03/26 12:44:21;;;;;;;33.13;19.73;;;;;;;;;;5032661;28;20188;-85
2022/03/26 12:47:27;;;;;;;31.00;19.57;;;;;;;;;;5032370;28;20587;-84
2022/03/26 12:50:37;;;;;;;29.43;19.30;;;;;;;;;;5032628;28;20188;-84
2022/03/26 12:53:41;;;;;;;31.00;19.10;;;;;;;;;;5021453;28;20188;-84
2022/03/26 12:56:49;;;;;;;27.43;19.20;;;;;;;;;;5032589;28;20207;-84
2022/03/26 12:59:54;;;;;;;28.57;18.37;;;;;;;;;;5032674;28;20197;-84
2022/03/26 13:03:02;;;;;;;30.57;19.00;;;;;;;;;;5009787;28;20220;-85
2022/03/26 13:06:15;;;;;;;26.73;18.73;;;;;;;;;;5020866;28;20202;-85
2022/03/26 13:09:19;;;;;;;29.70;19.33;;;;;;;;;;5020594;28;20199;-84
2022/03/26 13:12:28;;;;;;;34.07;19.53;;;;;;;;;;5020708;28;20199;-84
2022/03/26 13:15:33;;;;;;;33.37;20.80;;;;;;;;;;5032390;28;20578;-85
2022/03/26 13:18:41;;;;;;;41.53;21.30;;;;;;;;;;5020675;28;20219;-84
2022/03/26 13:21:50;;;;;;;33.77;20.57;;;;;;;;;;5032230;28;20232;-85
2022/03/26 13:24:55;;;;;;;30.13;19.47;;;;;;;;;;5031860;28;20202;-84
2022/03/26 13:28:20;;;;;;;35.13;21.13;;;;;;;;;;5045191;28;20708;-84
2022/03/26 13:31:24;;;;;;;28.77;19.83;;;;;;;;;;5035906;28;20188;-85
2022/03/26 13:34:29;;;;;;;30.07;19.20;;;;;;;;;;5035779;28;20181;-85
2022/03/26 13:37:33;;;;;;;28.07;19.83;;;;;;;;;;5035615;28;20235;-85
2022/03/26 13:40:37;;;;;;;30.27;19.83;;;;;;;;;;5047147;28;20537;-85
2022/03/26 13:43:43;;;;;;;32.70;20.07;;;;;;;;;;5035819;28;20184;-85
2022/03/26 13:46:48;;;;;;;27.43;18.87;;;;;;;;;;5012909;28;20189;-85
2022/03/26 13:50:10;;;;;;;32.90;19.00;;;;;;;;;;5024250;28;20205;-85
2022/03/26 13:53:18;;;;;;;30.03;18.90;;;;;;;;;;5035622;28;20194;-85
2022/03/26 13:56:35;;;;;;;29.47;20.23;;;;;;;;;;5023843;28;20551;-85
2022/03/26 13:59:47;;;;;;;29.13;20.10;;;;;;;;;;5023968;28;20181;-85
2022/03/26 14:02:52;;;;;;;32.07;19.27;;;;;;;;;;5035031;28;20218;-85
2022/03/26 14:05:56;;;;;;;30.93;20.10;;;;;;;;;;5035348;28;20200;-85
2022/03/26 14:09:02;;;;;;;39.97;20.23;;;;;;;;;;5023927;28;20203;-85
2022/03/26 14:12:06;;;;;;;44.70;20.30;;;;;;;;;;5035085;28;20654;-85
2022/03/26 14:15:10;;;;;;;28.70;18.60;;;;;;;;;;5035016;28;20190;-85
2022/03/26 14:18:16;;;;;;;28.97;19.57;;;;;;;;;;5046343;28;20221;-85
2022/03/26 14:21:20;;;;;;;28.23;19.37;;;;;;;;;;5035020;28;20224;-85
2022/03/26 14:24:24;;;;;;;26.23;18.87;;;;;;;;;;5035253;28;20181;-85
2022/03/26 14:27:28;;;;;;;27.30;17.63;;;;;;;;;;5023540;28;20223;-85
2022/03/26 14:30:32;;;;;;;29.53;17.50;;;;;;;;;;5023451;28;20186;-85
2022/03/26 14:33:37;;;;;;;32.53;17.97;;;;;;;;;;5046520;28;20190;-85
2022/03/26 14:36:41;;;;;;;28.03;17.63;;;;;;;;;;5023754;28;20177;-85
2022/03/26 14:39:45;;;;;;;33.63;17.90;;;;;;;;;;5034489;28;20199;-85
2022/03/26 14:42:49;;;;;;;26.20;17.27;;;;;;;;;;5034336;28;20219;-85
2022/03/26 14:45:54;;;;;;;31.13;18.27;;;;;;;;;;5011892;28;20656;-85
2022/03/26 14:48:58;;;;;;;25.30;16.63;;;;;;;;;;5045652;28;20184;-85
2022/03/26 14:52:02;;;;;;;25.60;17.40;;;;;;;;;;5034633;28;20173;-85
2022/03/26 14:55:08;;;;;;;22.93;16.63;;;;;;;;;;5022999;28;20547;-86
2022/03/26 14:58:12;;;;;;;23.13;16.33;;;;;;;;;;5034057;28;20243;-86
2022/03/26 15:01:16;;;;;;;28.67;17.57;;;;;;;;;;5034189;28;20189;-87
2022/03/26 15:04:20;;;;;;;24.20;14.83;;;;;;;;;;5034208;28;20206;-86
2022/03/26 15:07:24;;;;;;;23.27;15.07;;;;;;;;;;5022830;28;20228;-86
2022/03/26 15:10:31;;;;;;;25.23;15.70;;;;;;;;;;5033877;28;20191;-86
2022/03/26 15:13:35;;;;;;;24.07;15.07;;;;;;;;;;5034015;28;20181;-86
2022/03/26 15:16:40;;;;;;;24.13;15.20;;;;;;;;;;5045163;28;20632;-86
2022/03/26 15:19:43;;;;;;;20.03;14.77;;;;;;;;;;5033939;28;20798;-86
2022/03/26 15:22:48;;;;;;;22.00;14.93;;;;;;;;;;5033749;28;20215;-86
2022/03/26 15:25:52;;;;;;;26.37;14.37;;;;;;;;;;5033827;28;20173;-86
2022/03/26 15:28:57;;;;;;;20.33;13.57;;;;;;;;;;5022942;28;20224;-86
2022/03/26 15:32:02;;;;;;;21.90;14.70;;;;;;;;;;5022275;28;20180;-86
2022/03/26 15:35:06;;;;;;;17.10;12.30;;;;;;;;;;5033775;28;20191;-86
2022/03/26 15:38:10;;;;;;;21.73;13.57;;;;;;;;;;5010526;28;20721;-86
2022/03/26 15:41:14;;;;;;;29.33;14.03;;;;;;;;;;5033426;28;20188;-86
2022/03/26 15:44:19;;;;;;;22.17;14.60;;;;;;;;;;5033483;28;20180;-86
2022/03/26 15:47:23;;;;;;;24.00;15.17;;;;;;;;;;5033297;28;20583;-86
2022/03/26 15:50:27;;;;;;;23.47;15.40;;;;;;;;;;5032737;28;20184;-86
2022/03/26 15:53:32;;;;;;;25.87;15.57;;;;;;;;;;5033360;28;20188;-85
2022/03/26 15:56:37;;;;;;;27.83;16.87;;;;;;;;;;5033034;28;20185;-85
2022/03/26 15:59:41;;;;;;;27.03;15.67;;;;;;;;;;5033451;28;20672;-85
2022/03/26 16:02:45;;;;;;;27.20;16.07;;;;;;;;;;5021671;28;20211;-85
2022/03/26 16:05:49;;;;;;;27.57;14.83;;;;;;;;;;5021784;28;20203;-85
2022/03/26 16:08:54;;;;;;;25.57;13.83;;;;;;;;;;5021607;28;20236;-85
2022/03/26 16:11:58;;;;;;;23.93;14.40;;;;;;;;;;5044185;28;20192;-85
2022/03/26 16:15:03;;;;;;;23.33;14.60;;;;;;;;;;5033014;28;20184;-85
2022/03/26 16:18:07;;;;;;;23.20;14.63;;;;;;;;;;5021299;28;20223;-85
2022/03/26 16:21:11;;;;;;;24.73;13.90;;;;;;;;;;5021646;28;20188;-85
2022/03/26 16:24:16;;;;;;;28.10;15.53;;;;;;;;;;5032824;28;20176;-85
2022/03/26 16:27:20;;;;;;;24.73;14.27;;;;;;;;;;5032585;28;20220;-85
2022/03/26 16:30:24;;;;;;;25.57;14.33;;;;;;;;;;5032632;28;20203;-85
2022/03/26 16:33:28;;;;;;;25.00;14.40;;;;;;;;;;5032435;28;20678;-85
2022/03/26 16:36:32;;;;;;;22.60;13.90;;;;;;;;;;5032622;28;20183;-85
2022/03/26 16:39:36;;;;;;;26.80;14.83;;;;;;;;;;5032603;28;20188;-85
2022/03/26 16:42:40;;;;;;;27.73;14.63;;;;;;;;;;5032612;28;20211;-85
2022/03/26 16:45:44;;;;;;;24.10;14.00;;;;;;;;;;5032617;28;20211;-85
2022/03/26 16:48:48;;;;;;;25.60;13.43;;;;;;;;;;5020849;28;20234;-85
2022/03/26 16:51:52;;;;;;;24.37;14.03;;;;;;;;;;5022804;28;20187;-85
2022/03/26 16:54:57;;;;;;;24.27;12.63;;;;;;;;;;5012863;28;20188;-85
2022/03/26 16:58:03;;;;;;;26.87;13.03;;;;;;;;;;5034776;28;20227;-85
2022/03/26 17:01:08;;;;;;;27.50;13.67;;;;;;;;;;5013037;28;20646;-85
2022/03/26 17:04:12;;;;;;;25.13;13.37;;;;;;;;;;5027601;28;20227;-84
2022/03/26 17:07:16;;;;;;;34.80;14.63;;;;;;;;;;5027417;28;20219;-84
2022/03/26 17:10:21;;;;;;;23.03;12.90;;;;;;;;;;5038744;28;20598;-85
2022/03/26 17:13:25;;;;;;;21.13;12.67;;;;;;;;;;5038251;28;20204;-85
2022/03/26 17:16:33;;;;;;;19.17;11.37;;;;;;;;;;5038688;28;20184;-85
2022/03/26 17:19:37;;;;;;;21.83;12.50;;;;;;;;;;5037938;28;20204;-85
2022/03/26 17:22:41;;;;;;;50.23;13.30;;;;;;;;;;5037807;28;20228;-85
2022/03/26 17:25:45;;;;;;;22.57;11.47;;;;;;;;;;5038725;28;20204;-85
2022/03/26 17:28:49;;;;;;;21.87;11.80;;;;;;;;;;5037967;28;20223;-85
2022/03/26 17:31:54;;;;;;;23.23;12.10;;;;;;;;;;5026508;28;20188;-85
2022/03/26 17:34:58;;;;;;;20.23;12.00;;;;;;;;;;5038126;28;20536;-85
2022/03/26 17:38:02;;;;;;;21.67;11.43;;;;;;;;;;5026580;28;20227;-85
2022/03/26 17:41:07;;;;;;;20.67;11.10;;;;;;;;;;5048837;28;20208;-85
2022/03/26 17:44:11;;;;;;;25.23;11.20;;;;;;;;;;5026140;28;20227;-85
2022/03/26 17:47:16;;;;;;;19.43;10.43;;;;;;;;;;5038244;28;20224;-85
2022/03/26 17:50:21;;;;;;;19.57;11.73;;;;;;;;;;5037881;28;20191;-85
2022/03/26 17:53:24;;;;;;;18.97;10.40;;;;;;;;;;5037827;28;20176;-85
2022/03/26 17:56:30;;;;;;;20.53;9.97;;;;;;;;;;5049682;28;20195;-85
2022/03/26 17:59:34;;;;;;;19.50;9.73;;;;;;;;;;5037192;28;20180;-85
2022/03/26 18:02:38;;;;;;;20.60;10.40;;;;;;;;;;5035229;28;20690;-85
2022/03/26 18:05:43;;;;;;;18.17;9.90;;;;;;;;;;5035211;28;20188;-85